createdAt,value
2019-02-08T00:00:33.980Z,53.57
2019-02-08T00:02:09.561Z,53.20
2019-02-08T00:03:45.243Z,52.33
2019-02-08T00:05:20.761Z,54.23
2019-02-08T00:06:56.334Z,51.80
2019-02-08T00:08:31.834Z,49.77
2019-02-08T00:10:14.693Z,52.10
2019-02-08T00:11:50.310Z,48.73
2019-02-08T00:13:25.805Z,49.47
2019-02-08T00:15:01.314Z,49.80
2019-02-08T00:16:36.849Z,50.73
2019-02-08T00:18:12.412Z,51.17
2019-02-08T00:19:47.912Z,53.50
2019-02-08T00:21:23.417Z,52.43
2019-02-08T00:22:58.923Z,53.33
2019-02-08T00:24:34.422Z,53.43
2019-02-08T00:26:09.924Z,53.53
2019-02-08T00:27:45.433Z,53.77
2019-02-08T00:29:21.418Z,55.37
2019-02-08T00:30:56.905Z,54.93
2019-02-08T00:32:32.410Z,57.17
2019-02-08T00:34:07.915Z,54.53
2019-02-08T00:35:43.441Z,52.13
2019-02-08T00:37:18.946Z,47.23
2019-02-08T00:38:54.457Z,51.30
2019-02-08T00:40:29.961Z,51.30
2019-02-08T00:42:05.855Z,46.90
2019-02-08T00:43:41.355Z,49.50
2019-02-08T00:45:21.782Z,46.33
2019-02-08T00:46:57.283Z,47.80
2019-02-08T00:48:32.822Z,50.47
2019-02-08T00:50:24.465Z,53.60
2019-02-08T00:51:59.968Z,50.87
2019-02-08T00:53:35.874Z,67.63
2019-02-08T00:55:11.425Z,73.03
2019-02-08T00:56:46.996Z,76.33
2019-02-08T00:58:22.505Z,75.63
2019-02-08T00:59:59.528Z,69.30
2019-02-08T01:01:35.035Z,65.80
2019-02-08T01:03:10.539Z,66.40
2019-02-08T01:04:46.041Z,72.77
2019-02-08T01:06:21.862Z,66.20
2019-02-08T01:07:57.426Z,58.40
2019-02-08T01:09:32.934Z,65.07
2019-02-08T01:11:08.433Z,68.17
2019-02-08T01:12:43.973Z,69.00
2019-02-08T01:14:20.973Z,68.83
2019-02-08T01:15:56.566Z,67.47
2019-02-08T01:17:32.169Z,62.57
2019-02-08T01:19:07.730Z,64.83
2019-02-08T01:20:43.232Z,66.40
2019-02-08T01:22:18.741Z,65.00
2019-02-08T01:23:54.236Z,66.40
2019-02-08T01:25:31.145Z,66.27
2019-02-08T01:27:06.675Z,58.60
2019-02-08T01:28:42.243Z,54.37
2019-02-08T01:30:23.872Z,56.27
2019-02-08T01:32:00.869Z,56.87
2019-02-08T01:33:36.399Z,61.13
2019-02-08T01:35:14.007Z,63.80
2019-02-08T01:36:49.511Z,63.07
2019-02-08T01:38:25.013Z,70.40
2019-02-08T01:40:00.518Z,62.10
2019-02-08T01:41:36.043Z,59.70
2019-02-08T01:43:13.073Z,67.13
2019-02-08T01:44:48.576Z,69.27
2019-02-08T01:46:24.113Z,67.53
2019-02-08T01:47:59.671Z,66.80
2019-02-08T01:49:35.198Z,68.03
2019-02-08T01:51:10.699Z,64.30
2019-02-08T01:52:46.209Z,65.00
2019-02-08T01:54:21.716Z,65.67
2019-02-08T01:55:57.216Z,71.37
2019-02-08T01:57:34.219Z,66.27
2019-02-08T01:59:09.723Z,65.47
2019-02-08T02:00:45.316Z,66.37
2019-02-08T02:02:20.834Z,66.90
2019-02-08T02:03:56.342Z,68.63
2019-02-08T02:05:31.928Z,68.47
2019-02-08T02:07:07.537Z,67.17
2019-02-08T02:08:43.045Z,65.15
2019-02-08T02:10:27.585Z,64.27
2019-02-08T02:12:03.090Z,64.23
2019-02-08T02:13:38.600Z,66.00
2019-02-08T02:15:14.148Z,65.00
2019-02-08T02:16:49.716Z,66.60
2019-02-08T02:18:25.239Z,63.83
2019-02-08T02:20:00.752Z,65.87
2019-02-08T02:21:36.316Z,67.53
2019-02-08T02:23:14.834Z,61.27
2019-02-08T02:24:50.339Z,59.58
2019-02-08T02:26:25.842Z,57.00
2019-02-08T02:28:01.341Z,63.57
2019-02-08T02:29:36.859Z,58.87
2019-02-08T02:31:13.865Z,65.15
2019-02-08T02:32:49.366Z,66.13
2019-02-08T02:34:24.882Z,70.15
2019-02-08T02:36:00.410Z,66.02
2019-02-08T02:37:35.922Z,63.95
2019-02-08T02:39:11.439Z,67.05
2019-02-08T02:40:46.951Z,66.90
2019-02-08T02:42:22.454Z,66.62
2019-02-08T02:43:58.063Z,63.83
2019-02-08T02:45:39.381Z,68.80
2019-02-08T02:47:14.898Z,70.37
2019-02-08T02:48:50.392Z,70.63
2019-02-08T02:50:25.979Z,68.13
2019-02-08T02:52:01.494Z,66.90
2019-02-08T02:53:37.009Z,67.45
2019-02-08T02:55:24.588Z,66.00
2019-02-08T02:57:01.594Z,60.73
2019-02-08T02:58:37.105Z,66.60
2019-02-08T03:00:23.593Z,65.30
2019-02-08T03:01:59.193Z,61.67
2019-02-08T03:03:34.681Z,63.97
2019-02-08T03:05:10.222Z,59.50
2019-02-08T03:06:45.731Z,61.50
2019-02-08T03:08:21.232Z,59.97
2019-02-08T03:09:56.765Z,57.93
2019-02-08T03:11:32.332Z,61.47
2019-02-08T03:13:08.137Z,58.63
2019-02-08T03:14:43.672Z,56.95
2019-02-08T03:16:19.176Z,57.53
2019-02-08T03:17:54.778Z,58.80
2019-02-08T03:19:30.281Z,59.60
2019-02-08T03:21:05.790Z,57.57
2019-02-08T03:22:41.302Z,58.43
2019-02-08T03:24:16.810Z,55.80
2019-02-08T03:25:52.336Z,51.07
2019-02-08T03:27:27.821Z,54.00
2019-02-08T03:29:03.317Z,54.97
2019-02-08T03:30:52.836Z,54.00
2019-02-08T03:32:28.361Z,56.43
2019-02-08T03:34:03.939Z,55.73
2019-02-08T03:35:39.508Z,56.83
2019-02-08T03:37:15.047Z,51.77
2019-02-08T03:38:52.058Z,52.83
2019-02-08T03:40:30.533Z,55.00
2019-02-08T03:42:06.034Z,54.00
2019-02-08T03:43:41.561Z,53.23
2019-02-08T03:45:17.138Z,51.40
2019-02-08T03:46:52.638Z,56.07
2019-02-08T03:48:29.642Z,52.80
2019-02-08T03:50:09.729Z,53.87
2019-02-08T03:51:45.217Z,51.37
2019-02-08T03:53:20.719Z,53.07
2019-02-08T03:54:56.253Z,52.20
2019-02-08T03:56:31.832Z,51.67
2019-02-08T03:58:09.281Z,53.47
2019-02-08T03:59:46.271Z,57.37
2019-02-08T04:01:21.874Z,52.77
2019-02-08T04:02:57.367Z,54.93
2019-02-08T04:04:32.877Z,55.37
2019-02-08T04:06:08.373Z,56.40
2019-02-08T04:07:43.973Z,57.33
2019-02-08T04:09:19.482Z,54.57
2019-02-08T04:10:54.979Z,56.77
2019-02-08T04:12:30.510Z,58.73
2019-02-08T04:14:06.347Z,58.37
2019-02-08T04:15:41.925Z,57.37
2019-02-08T04:17:17.466Z,56.60
2019-02-08T04:18:52.959Z,59.57
2019-02-08T04:20:28.458Z,63.63
2019-02-08T04:22:03.955Z,66.47
2019-02-08T04:23:39.528Z,74.00
2019-02-08T04:25:18.045Z,76.23
2019-02-08T04:26:53.559Z,71.20
2019-02-08T04:28:29.053Z,74.37
2019-02-08T04:30:11.731Z,61.23
2019-02-08T04:31:47.239Z,59.13
2019-02-08T04:33:22.757Z,59.50
2019-02-08T04:34:58.257Z,60.23
2019-02-08T04:36:35.331Z,60.20
2019-02-08T04:38:10.840Z,58.93
2019-02-08T04:39:46.409Z,61.37
2019-02-08T04:41:21.984Z,57.50
2019-02-08T04:42:57.491Z,59.73
2019-02-08T04:44:32.983Z,59.77
2019-02-08T04:46:08.567Z,61.60
2019-02-08T04:47:44.586Z,61.70
2019-02-08T04:49:20.136Z,66.77
2019-02-08T04:50:55.638Z,62.90
2019-02-08T04:52:31.150Z,62.60
2019-02-08T04:54:06.680Z,61.93
2019-02-08T04:55:42.754Z,60.57
2019-02-08T04:57:19.753Z,61.23
2019-02-08T04:58:55.258Z,65.23
2019-02-08T05:00:35.118Z,65.17
2019-02-08T05:02:10.620Z,62.90
2019-02-08T05:03:46.118Z,65.17
2019-02-08T05:05:21.693Z,65.43
2019-02-08T05:06:57.211Z,65.47
2019-02-08T05:08:32.714Z,66.27
2019-02-08T05:10:16.453Z,66.50
2019-02-08T05:11:51.952Z,62.77
2019-02-08T05:13:27.464Z,66.20
2019-02-08T05:15:02.975Z,65.83
2019-02-08T05:16:38.488Z,66.40
2019-02-08T05:18:14.003Z,67.90
2019-02-08T05:19:49.504Z,67.30
2019-02-08T05:21:25.047Z,67.27
2019-02-08T05:23:00.615Z,68.23
2019-02-08T05:24:36.130Z,70.50
2019-02-08T05:26:11.631Z,70.63
2019-02-08T05:27:47.131Z,72.27
2019-02-08T05:29:22.642Z,74.70
2019-02-08T05:30:58.215Z,66.37
2019-02-08T05:32:35.219Z,68.63
2019-02-08T05:34:10.749Z,68.37
2019-02-08T05:35:46.248Z,61.50
2019-02-08T05:37:21.761Z,62.63
2019-02-08T05:38:57.270Z,59.40
2019-02-08T05:40:32.785Z,54.10
2019-02-08T05:42:08.354Z,54.30
2019-02-08T05:43:43.867Z,53.70
2019-02-08T05:45:24.622Z,52.80
2019-02-08T05:47:00.113Z,51.50
2019-02-08T05:48:35.682Z,51.57
2019-02-08T05:50:15.612Z,51.77
2019-02-08T05:51:51.204Z,53.80
2019-02-08T05:53:26.694Z,51.97
2019-02-08T05:55:05.236Z,51.10
2019-02-08T05:56:40.725Z,52.30
2019-02-08T05:58:16.266Z,49.33
2019-02-08T05:59:51.755Z,51.63
2019-02-08T06:01:27.348Z,52.93
2019-02-08T06:03:02.840Z,51.43
2019-02-08T06:04:38.341Z,51.97
2019-02-08T06:06:13.836Z,50.10
2019-02-08T06:07:49.360Z,50.97
2019-02-08T06:09:24.855Z,52.60
2019-02-08T06:11:00.400Z,53.03
2019-02-08T06:12:35.895Z,55.30
2019-02-08T06:14:13.062Z,51.63
2019-02-08T06:15:48.614Z,52.77
2019-02-08T06:17:24.114Z,50.87
2019-02-08T06:18:59.611Z,50.57
2019-02-08T06:20:35.113Z,52.10
2019-02-08T06:22:10.602Z,53.93
2019-02-08T06:23:46.097Z,51.47
2019-02-08T06:25:22.931Z,51.47
2019-02-08T06:26:58.487Z,52.73
2019-02-08T06:28:35.634Z,54.13
2019-02-08T06:30:21.837Z,53.33
2019-02-08T06:31:57.368Z,54.07
2019-02-08T06:33:32.858Z,55.90
2019-02-08T06:35:08.360Z,54.43
2019-02-08T06:36:43.852Z,55.63
2019-02-08T06:38:19.379Z,54.03
2019-02-08T06:39:54.868Z,55.57
2019-02-08T06:41:30.944Z,55.17
2019-02-08T06:43:07.928Z,52.00
2019-02-08T06:44:43.446Z,53.60
2019-02-08T06:46:18.965Z,54.30
2019-02-08T06:47:54.669Z,55.07
2019-02-08T06:49:30.197Z,54.63
2019-02-08T06:51:05.698Z,57.10
2019-02-08T06:52:44.451Z,58.97
2019-02-08T06:54:19.951Z,58.97
2019-02-08T06:55:55.446Z,60.40
2019-02-08T06:57:32.854Z,63.20
2019-02-08T06:59:09.985Z,64.60
2019-02-08T07:00:52.912Z,64.47
2019-02-08T07:02:30.058Z,61.73
2019-02-08T07:04:16.025Z,60.00
2019-02-08T07:05:55.688Z,66.00
2019-02-08T07:07:41.375Z,71.37
2019-02-08T07:09:18.984Z,67.27
2019-02-08T07:10:56.125Z,63.70
2019-02-08T07:12:36.293Z,61.93
2019-02-08T07:14:13.414Z,52.47
2019-02-08T07:15:59.373Z,48.77
2019-02-08T07:17:36.489Z,49.10
2019-02-08T07:19:11.774Z,51.13
2019-02-08T07:20:53.400Z,51.17
2019-02-08T07:22:36.579Z,55.13
2019-02-08T07:24:13.742Z,55.50
2019-02-08T07:25:53.841Z,54.80
2019-02-08T07:27:36.955Z,55.63
2019-02-08T07:29:14.118Z,64.50
2019-02-08T07:31:04.384Z,71.40
2019-02-08T07:32:58.076Z,69.33
2019-02-08T07:34:35.217Z,67.53
2019-02-08T07:36:12.349Z,61.83
2019-02-08T07:38:04.900Z,56.23
2019-02-08T07:39:55.300Z,56.37
2019-02-08T07:41:41.164Z,55.03
2019-02-08T07:43:20.715Z,55.87
2019-02-08T07:45:15.979Z,60.47
2019-02-08T07:46:55.108Z,52.37
2019-02-08T07:48:33.070Z,50.37
2019-02-08T07:50:32.032Z,47.90
2019-02-08T07:52:12.157Z,52.17
2019-02-08T07:53:47.456Z,51.23
2019-02-08T07:55:26.099Z,55.57
2019-02-08T07:57:01.743Z,52.83
2019-02-08T07:58:53.790Z,53.63
2019-02-08T08:00:41.954Z,51.40
2019-02-08T08:02:28.087Z,50.50
2019-02-08T08:04:03.348Z,51.97
2019-02-08T08:05:43.560Z,55.60
2019-02-08T08:07:20.701Z,52.40
2019-02-08T08:08:57.897Z,53.03
2019-02-08T08:10:43.729Z,53.57
2019-02-08T08:12:20.996Z,54.23
2019-02-08T08:14:14.896Z,53.97
2019-02-08T08:16:10.937Z,51.50
2019-02-08T08:17:53.962Z,52.10
2019-02-08T08:19:38.230Z,54.93
2019-02-08T08:21:24.330Z,50.60
2019-02-08T08:23:17.497Z,50.37
2019-02-08T08:24:57.456Z,50.57
2019-02-08T08:26:38.918Z,50.23
2019-02-08T08:28:18.839Z,52.00
2019-02-08T08:30:01.931Z,52.33
2019-02-08T08:31:47.386Z,52.90
2019-02-08T08:33:45.637Z,51.27
2019-02-08T08:35:45.217Z,53.33
2019-02-08T08:37:42.413Z,54.17
2019-02-08T08:39:36.178Z,51.63
2019-02-08T08:41:34.609Z,52.37
2019-02-08T08:43:17.975Z,54.07
2019-02-08T08:45:13.680Z,54.57
2019-02-08T08:47:16.591Z,51.40
2019-02-08T08:49:33.197Z,48.83
2019-02-08T08:51:30.557Z,49.67
2019-02-08T08:53:37.914Z,48.23
2019-02-08T08:55:42.444Z,48.43
2019-02-08T08:57:44.081Z,47.73
2019-02-08T08:59:45.446Z,48.40
2019-02-08T09:01:29.770Z,48.33
2019-02-08T09:03:15.544Z,46.00
2019-02-08T09:05:11.610Z,49.37
2019-02-08T09:07:25.012Z,49.13
2019-02-08T09:09:45.125Z,46.10
2019-02-08T09:11:55.420Z,48.00
2019-02-08T09:14:00.055Z,48.87
2019-02-08T09:15:56.819Z,46.73
2019-02-08T09:18:07.124Z,48.03
2019-02-08T09:20:20.761Z,49.13
2019-02-08T09:22:31.402Z,47.73
2019-02-08T09:24:15.603Z,53.93
2019-02-08T09:26:07.790Z,55.10
2019-02-08T09:28:02.403Z,55.67
2019-02-08T09:30:23.321Z,54.73
2019-02-08T09:32:28.952Z,57.33
2019-02-08T09:34:37.997Z,49.70
2019-02-08T09:36:39.211Z,48.13
2019-02-08T09:38:45.984Z,47.03
2019-02-08T09:40:49.052Z,46.63
2019-02-08T09:42:47.166Z,44.60
2019-02-08T09:44:44.305Z,44.63
2019-02-08T09:46:51.657Z,44.80
2019-02-08T09:49:19.439Z,47.47
2019-02-08T09:51:19.467Z,51.80
2019-02-08T09:53:07.212Z,49.20
2019-02-08T09:54:56.553Z,49.70
2019-02-08T09:56:59.569Z,46.53
2019-02-08T09:58:48.486Z,47.50
2019-02-08T10:00:46.060Z,46.53
2019-02-08T10:02:58.110Z,44.93
2019-02-08T10:05:14.574Z,50.77
2019-02-08T10:07:09.940Z,58.17
2019-02-08T10:09:08.161Z,54.70
2019-02-08T10:11:20.728Z,51.60
2019-02-08T10:13:38.940Z,43.77
2019-02-08T10:15:37.283Z,48.95
2019-02-08T10:17:34.211Z,47.73
2019-02-08T10:20:06.215Z,44.90
2019-02-08T10:22:25.773Z,44.47
2019-02-08T10:24:11.955Z,44.23
2019-02-08T10:26:12.580Z,40.10
2019-02-08T10:28:22.751Z,43.10
2019-02-08T10:30:31.663Z,46.20
2019-02-08T10:32:51.706Z,42.83
2019-02-08T10:35:15.723Z,46.70
2019-02-08T10:37:45.906Z,38.90
2019-02-08T10:39:41.323Z,45.60
2019-02-08T10:41:30.487Z,47.67
2019-02-08T10:43:48.845Z,49.07
2019-02-08T10:46:12.037Z,47.43
2019-02-08T10:48:33.403Z,40.57
2019-02-08T10:50:22.352Z,39.87
2019-02-08T10:52:45.514Z,39.00
2019-02-08T10:54:51.642Z,36.70
2019-02-08T10:56:52.944Z,35.97
2019-02-08T10:59:07.868Z,43.10
2019-02-08T11:01:22.978Z,41.03
2019-02-08T11:03:31.865Z,37.57
2019-02-08T11:05:41.011Z,38.43
2019-02-08T11:07:49.813Z,40.47
2019-02-08T11:10:19.983Z,40.40
2019-02-08T11:12:28.891Z,37.93
2019-02-08T11:14:27.323Z,34.97
2019-02-08T11:16:55.648Z,41.35
2019-02-08T11:19:11.921Z,36.03
2019-02-08T11:20:48.917Z,34.93
2019-02-08T11:22:24.658Z,35.37
2019-02-08T11:24:00.165Z,38.07
2019-02-08T11:25:35.701Z,37.47
2019-02-08T11:27:11.197Z,37.70
2019-02-08T11:28:46.761Z,35.10
2019-02-08T11:30:22.276Z,34.17
2019-02-08T11:31:57.756Z,35.33
2019-02-08T11:33:33.271Z,34.73
2019-02-08T11:35:10.885Z,36.50
2019-02-08T11:36:46.464Z,40.63
2019-02-08T11:38:21.967Z,39.77
2019-02-08T11:39:57.469Z,40.27
2019-02-08T11:41:32.979Z,37.73
2019-02-08T11:43:09.458Z,38.50
2019-02-08T11:46:40.322Z,35.30
2019-02-08T11:48:16.011Z,33.67
2019-02-08T11:49:51.669Z,34.47
2019-02-08T11:51:28.247Z,35.20
2019-02-08T11:55:24.106Z,30.80
2019-02-08T11:56:59.602Z,28.30
2019-02-08T11:58:35.098Z,29.60
2019-02-08T12:00:29.698Z,30.20
2019-02-08T12:02:05.273Z,28.90
2019-02-08T12:03:40.769Z,27.60
2019-02-08T12:05:16.280Z,29.00
2019-02-08T12:06:51.805Z,29.43
2019-02-08T12:08:27.314Z,31.93
2019-02-08T12:10:02.868Z,29.27
2019-02-08T12:11:38.521Z,25.70
2019-02-08T12:13:14.079Z,24.07
2019-02-08T12:14:49.569Z,22.40
2019-02-08T12:16:25.069Z,22.10
2019-02-08T12:18:00.652Z,22.17
2019-02-08T12:19:36.197Z,24.70
2019-02-08T12:21:11.693Z,26.73
2019-02-08T12:22:47.195Z,24.20
2019-02-08T12:24:23.353Z,24.77
2019-02-08T12:25:58.848Z,23.63
2019-02-08T12:27:34.345Z,22.10
2019-02-08T12:29:09.862Z,22.47
2019-02-08T12:30:46.555Z,24.70
2019-02-08T12:32:22.041Z,23.03
2019-02-08T12:33:57.527Z,22.50
2019-02-08T12:35:33.010Z,23.83
2019-02-08T12:37:08.494Z,22.63
2019-02-08T12:38:45.535Z,26.30
2019-02-08T12:40:21.033Z,26.67
2019-02-08T12:41:56.544Z,28.17
2019-02-08T12:43:32.174Z,27.47
2019-02-08T12:45:12.479Z,27.33
2019-02-08T12:46:49.257Z,24.27
2019-02-08T12:48:24.768Z,26.17
2019-02-08T12:50:00.287Z,28.30
2019-02-08T12:51:35.822Z,26.60
2019-02-08T12:53:11.325Z,27.17
2019-02-08T12:54:46.839Z,30.20
2019-02-08T12:56:22.317Z,28.73
2019-02-08T12:57:57.802Z,29.93
2019-02-08T12:59:34.779Z,28.73
2019-02-08T13:01:10.275Z,27.20
2019-02-08T13:02:45.778Z,28.80
2019-02-08T13:04:21.255Z,26.10
2019-02-08T13:05:56.743Z,29.80
2019-02-08T13:07:32.235Z,27.57
2019-02-08T13:09:10.525Z,27.67
2019-02-08T13:10:46.010Z,29.33
2019-02-08T13:12:21.522Z,29.13
2019-02-08T13:13:57.004Z,31.00
2019-02-08T13:15:32.498Z,33.53
2019-02-08T13:17:08.001Z,29.53
2019-02-08T13:18:43.534Z,26.33
2019-02-08T13:20:22.653Z,27.17
2019-02-08T13:21:58.135Z,26.53
2019-02-08T13:23:33.682Z,25.57
2019-02-08T13:25:11.395Z,26.37
2019-02-08T13:26:52.846Z,26.63
2019-02-08T13:28:24.662Z,27.67
2019-02-08T13:30:00.224Z,26.63
2019-02-08T13:31:35.717Z,27.87
2019-02-08T13:33:11.263Z,25.87
2019-02-08T13:34:48.824Z,27.47
2019-02-08T13:36:24.311Z,27.37
2019-02-08T13:37:59.870Z,28.13
2019-02-08T13:39:35.597Z,26.13
2019-02-08T13:41:11.137Z,26.73
2019-02-08T13:42:46.639Z,26.63
2019-02-08T13:44:22.150Z,30.03
2019-02-08T13:45:57.748Z,29.27
2019-02-08T13:47:33.309Z,27.20
2019-02-08T13:49:08.794Z,28.00
2019-02-08T13:50:45.655Z,29.80
2019-02-08T13:52:21.216Z,31.33
2019-02-08T13:53:56.725Z,29.07
2019-02-08T13:55:32.283Z,29.53
2019-02-08T13:57:07.770Z,29.57
2019-02-08T13:58:43.254Z,30.03
2019-02-08T14:00:29.465Z,31.23
2019-02-08T14:02:04.946Z,31.00
2019-02-08T14:03:40.462Z,30.27
2019-02-08T14:05:16.014Z,30.43
2019-02-08T14:06:51.505Z,31.20
2019-02-08T14:08:26.982Z,29.00
2019-02-08T14:10:02.491Z,28.97
2019-02-08T14:11:37.976Z,28.73
2019-02-08T14:13:13.462Z,29.50
2019-02-08T14:14:48.941Z,32.77
2019-02-08T14:16:24.438Z,37.20
2019-02-08T14:17:59.935Z,37.30
2019-02-08T14:19:35.420Z,39.47
2019-02-08T14:21:10.899Z,38.87
2019-02-08T14:22:46.433Z,36.40
2019-02-08T14:24:21.911Z,34.83
2019-02-08T14:25:57.393Z,34.83
2019-02-08T14:27:32.881Z,33.87
2019-02-08T14:29:08.362Z,32.70
2019-02-08T14:30:44.417Z,32.67
2019-02-08T14:32:20.759Z,30.30
2019-02-08T14:33:56.281Z,29.10
2019-02-08T14:35:31.803Z,31.03
2019-02-08T14:37:07.321Z,33.10
2019-02-08T14:38:42.807Z,32.27
2019-02-08T14:40:22.728Z,34.20
2019-02-08T14:41:58.203Z,34.23
2019-02-08T14:43:33.703Z,33.63
2019-02-08T14:45:11.900Z,34.10
2019-02-08T14:46:47.459Z,30.93
2019-02-08T14:48:22.975Z,32.43
2019-02-08T14:49:58.465Z,30.20
2019-02-08T14:51:33.953Z,33.27
2019-02-08T14:53:09.443Z,31.13
2019-02-08T14:54:44.950Z,31.03
2019-02-08T14:56:20.437Z,33.07
2019-02-08T14:58:02.531Z,31.83
2019-02-08T14:59:38.015Z,33.37
2019-02-08T15:01:13.496Z,37.10
2019-02-08T15:02:48.987Z,35.47
2019-02-08T15:04:24.498Z,33.40
2019-02-08T15:05:59.979Z,34.40
2019-02-08T15:07:35.464Z,36.07
2019-02-08T15:09:11.022Z,35.23
2019-02-08T15:10:54.657Z,38.83
2019-02-08T15:12:30.174Z,36.27
2019-02-08T15:14:05.670Z,36.67
2019-02-08T15:15:41.136Z,36.67
2019-02-08T15:17:16.615Z,35.57
2019-02-08T15:18:52.098Z,37.83
2019-02-08T15:20:34.113Z,35.20
2019-02-08T15:22:09.599Z,37.23
2019-02-08T15:23:45.091Z,37.90
2019-02-08T15:25:20.643Z,37.57
2019-02-08T15:26:56.122Z,40.13
2019-02-08T15:28:31.661Z,37.53
2019-02-08T15:30:26.670Z,38.17
2019-02-08T15:32:02.182Z,39.43
2019-02-08T15:33:37.700Z,41.80
2019-02-08T15:35:17.698Z,44.53
2019-02-08T15:36:54.679Z,44.63
2019-02-08T15:38:30.234Z,45.17
2019-02-08T15:40:10.612Z,45.37
2019-02-08T15:41:46.100Z,63.47
2019-02-08T15:43:23.390Z,89.37
2019-02-08T15:45:00.413Z,95.73
2019-02-08T15:46:35.980Z,93.73
2019-02-08T15:48:11.543Z,70.20
2019-02-08T15:49:47.169Z,64.10
2019-02-08T15:51:22.782Z,62.43
2019-02-08T15:52:58.399Z,66.37
2019-02-08T15:54:33.955Z,68.27
2019-02-08T15:56:13.265Z,70.23
2019-02-08T15:57:48.770Z,68.63
2019-02-08T15:59:24.258Z,66.83
2019-02-08T16:00:59.756Z,69.73
2019-02-08T16:02:35.239Z,70.10
2019-02-08T16:04:12.231Z,74.30
2019-02-08T16:05:47.735Z,73.63
2019-02-08T16:07:23.220Z,73.27
2019-02-08T16:08:58.710Z,78.70
2019-02-08T16:10:34.212Z,76.60
2019-02-08T16:12:09.727Z,78.37
2019-02-08T16:13:45.228Z,80.63
2019-02-08T16:15:30.245Z,103.83
2019-02-08T16:17:05.754Z,111.57
2019-02-08T16:18:41.273Z,155.00
2019-02-08T16:20:19.769Z,163.30
2019-02-08T16:21:55.265Z,147.50
2019-02-08T16:23:30.752Z,120.10
2019-02-08T16:25:12.778Z,120.30
2019-02-08T16:26:48.266Z,119.53
2019-02-08T16:28:23.757Z,102.83
2019-02-08T16:29:59.825Z,100.03
2019-02-08T16:31:35.560Z,91.50
2019-02-08T16:33:11.047Z,93.50
2019-02-08T16:34:58.698Z,90.77
2019-02-08T16:36:34.187Z,87.40
2019-02-08T16:38:11.350Z,94.30
2019-02-08T16:39:46.836Z,95.97
2019-02-08T16:41:22.348Z,96.37
2019-02-08T16:42:58.289Z,93.90
2019-02-08T16:44:33.893Z,96.50
2019-02-08T16:46:10.344Z,98.13
2019-02-08T16:47:45.885Z,104.97
2019-02-08T16:49:21.388Z,105.07
2019-02-08T16:50:56.886Z,102.13
2019-02-08T16:52:32.659Z,104.03
2019-02-08T16:54:08.152Z,103.23
2019-02-08T16:55:43.651Z,100.90
2019-02-08T16:57:19.141Z,103.37
2019-02-08T16:59:11.726Z,100.83
2019-02-08T17:00:47.336Z,113.13
2019-02-08T17:02:22.829Z,117.37
2019-02-08T17:03:58.321Z,119.87
2019-02-08T17:05:34.586Z,117.27
2019-02-08T17:07:10.077Z,121.73
2019-02-08T17:08:45.645Z,120.23
2019-02-08T17:10:21.147Z,112.50
2019-02-08T17:11:56.640Z,107.57
2019-02-08T17:13:34.799Z,104.83
2019-02-08T17:15:25.370Z,106.73
2019-02-08T17:17:00.921Z,106.40
2019-02-08T17:18:36.400Z,102.03
2019-02-08T17:20:16.833Z,109.77
2019-02-08T17:21:52.332Z,104.97
2019-02-08T17:23:27.859Z,108.83
2019-02-08T17:25:03.357Z,108.47
2019-02-08T17:26:38.858Z,106.97
2019-02-08T17:28:14.350Z,107.53
2019-02-08T17:29:52.765Z,104.83
2019-02-08T17:31:28.266Z,106.10
2019-02-08T17:33:03.790Z,101.37
2019-02-08T17:34:39.251Z,107.90
2019-02-08T17:36:14.783Z,105.00
2019-02-08T17:37:50.278Z,108.37
2019-02-08T17:39:25.788Z,107.27
2019-02-08T17:41:01.282Z,113.03
2019-02-08T17:42:36.790Z,115.83
2019-02-08T17:44:12.310Z,113.30
2019-02-08T17:45:47.895Z,117.57
2019-02-08T17:47:23.389Z,123.63
2019-02-08T17:48:58.917Z,125.17
2019-02-08T17:50:34.418Z,125.23
2019-02-08T17:52:09.917Z,145.43
2019-02-08T17:53:45.408Z,148.10
2019-02-08T17:55:23.854Z,148.73
2019-02-08T17:56:59.340Z,177.17
2019-02-08T17:58:34.843Z,186.13
2019-02-08T18:00:25.300Z,185.13
2019-02-08T18:02:00.827Z,168.70
2019-02-08T18:03:36.310Z,168.40
2019-02-08T18:05:12.761Z,166.57
2019-02-08T18:06:48.256Z,175.43
2019-02-08T18:08:23.769Z,179.90
2019-02-08T18:09:59.273Z,172.97
2019-02-08T18:11:34.840Z,170.67
2019-02-08T18:13:10.329Z,167.67
2019-02-08T18:14:45.824Z,155.03
2019-02-08T18:16:21.389Z,160.63
2019-02-08T18:17:56.878Z,156.13
2019-02-08T18:19:32.419Z,157.33
2019-02-08T18:21:08.053Z,152.70
2019-02-08T18:22:44.690Z,161.07
2019-02-08T18:24:20.264Z,152.47
2019-02-08T18:25:55.921Z,149.57
2019-02-08T18:27:31.723Z,156.20
2019-02-08T18:29:07.201Z,160.00
2019-02-08T18:30:42.698Z,174.17
2019-02-08T18:32:18.203Z,180.10
2019-02-08T18:33:53.695Z,190.67
2019-02-08T18:35:29.216Z,201.33
2019-02-08T18:37:04.876Z,177.93
2019-02-08T18:38:40.372Z,183.70
2019-02-08T18:40:21.724Z,237.37
2019-02-08T18:41:57.294Z,167.27
2019-02-08T18:43:33.467Z,150.40
2019-02-08T18:45:13.831Z,125.50
2019-02-08T18:46:49.399Z,129.77
2019-02-08T18:48:24.928Z,120.97
2019-02-08T18:50:00.426Z,114.50
2019-02-08T18:51:35.925Z,120.53
2019-02-08T18:53:11.417Z,119.70
2019-02-08T18:54:46.930Z,106.53
2019-02-08T18:56:22.785Z,109.93
2019-02-08T18:57:58.291Z,104.37
2019-02-08T18:59:33.788Z,101.20
2019-02-08T19:01:10.774Z,100.87
2019-02-08T19:02:46.268Z,102.03
2019-02-08T19:04:21.793Z,100.43
2019-02-08T19:05:57.326Z,99.70
2019-02-08T19:07:32.824Z,99.50
2019-02-08T19:09:08.877Z,101.37
2019-02-08T19:10:44.365Z,98.70
2019-02-08T19:12:19.887Z,98.27
2019-02-08T19:13:55.370Z,99.40
2019-02-08T19:15:32.369Z,101.73
2019-02-08T19:17:07.867Z,98.97
2019-02-08T19:18:43.379Z,101.07
2019-02-08T19:20:28.371Z,105.77
2019-02-08T19:22:03.879Z,109.70
2019-02-08T19:23:39.381Z,108.73
2019-02-08T19:25:28.312Z,113.27
2019-02-08T19:27:03.811Z,123.90
2019-02-08T19:28:39.330Z,122.87
2019-02-08T19:30:33.522Z,111.53
2019-02-08T19:32:09.015Z,115.40
2019-02-08T19:33:44.554Z,123.83
2019-02-08T19:35:20.242Z,125.33
2019-02-08T19:36:55.749Z,128.47
2019-02-08T19:38:31.274Z,123.03
2019-02-08T19:40:17.280Z,130.23
2019-02-08T19:41:52.776Z,123.80
2019-02-08T19:43:28.418Z,120.13
2019-02-08T19:45:10.363Z,108.63
2019-02-08T19:46:45.865Z,115.87
2019-02-08T19:48:21.363Z,106.60
2019-02-08T19:49:56.858Z,102.10
2019-02-08T19:51:32.426Z,104.27
2019-02-08T19:53:08.727Z,110.37
2019-02-08T19:54:44.230Z,117.07
2019-02-08T19:56:19.761Z,103.50
2019-02-08T19:57:55.255Z,105.03
2019-02-08T19:59:30.760Z,109.37
2019-02-08T20:01:06.430Z,109.50
2019-02-08T20:02:41.961Z,122.00
2019-02-08T20:04:17.462Z,130.43
2019-02-08T20:05:52.962Z,192.20
2019-02-08T20:07:28.461Z,320.60
2019-02-08T20:09:05.528Z,327.20
2019-02-08T20:10:44.893Z,319.97
2019-02-08T20:12:20.386Z,342.67
2019-02-08T20:13:55.906Z,304.90
2019-02-08T20:15:31.409Z,333.60
2019-02-08T20:17:06.908Z,310.53
2019-02-08T20:18:42.419Z,299.30
2019-02-08T20:20:18.173Z,283.73
2019-02-08T20:21:53.667Z,230.43
2019-02-08T20:23:29.184Z,210.10
2019-02-08T20:25:13.977Z,209.00
2019-02-08T20:26:50.972Z,207.63
2019-02-08T20:28:26.486Z,199.10
2019-02-08T20:30:01.991Z,162.80
2019-02-08T20:31:37.523Z,159.83
2019-02-08T20:33:13.063Z,154.80
2019-02-08T20:34:48.636Z,154.63
2019-02-08T20:36:24.143Z,149.30
2019-02-08T20:38:01.018Z,160.27
2019-02-08T20:39:36.735Z,154.00
2019-02-08T20:41:12.250Z,143.77
2019-02-08T20:42:47.929Z,148.07
2019-02-08T20:44:23.658Z,149.80
2019-02-08T20:45:59.221Z,147.00
2019-02-08T20:47:35.101Z,144.70
2019-02-08T20:49:10.645Z,151.83
2019-02-08T20:50:47.645Z,153.80
2019-02-08T20:52:23.407Z,180.40
2019-02-08T20:53:59.314Z,174.87
2019-02-08T20:55:36.438Z,174.77
2019-02-08T20:57:12.061Z,178.60
2019-02-08T20:58:50.398Z,189.13
2019-02-08T21:00:32.203Z,210.13
2019-02-08T21:02:08.188Z,218.20
2019-02-08T21:03:43.688Z,197.47
2019-02-08T21:05:19.255Z,180.17
2019-02-08T21:06:55.158Z,189.33
2019-02-08T21:08:30.647Z,181.83
2019-02-08T21:10:09.152Z,158.70
2019-02-08T21:11:44.653Z,153.40
2019-02-08T21:13:20.249Z,147.80
2019-02-08T21:14:55.753Z,153.43
2019-02-08T21:16:31.254Z,160.20
2019-02-08T21:18:07.754Z,155.57
2019-02-08T21:19:43.292Z,169.10
2019-02-08T21:21:18.783Z,176.57